Time;durP1;ratioP1;P1;durP2;ratioP2;P2;SDS_P1;SDS_P2;PMS_P1;PMS_P2;Temp;Humidity;BMP_temperature;BMP_pressure;BME280_temperature;BME280_humidity;BME280_pressure;Samples;Min_cycle;Max_cycle;Signal;HPM_P1;HPM_P2
2022/03/06 00:00:33;;;;;;;14.95;10.40;;;3.00;92.60;;;;;;5051976;28;20245;-44
2022/03/06 00:03:01;;;;;;;13.95;9.95;;;2.90;92.50;;;;;;5052611;28;20192;-44
2022/03/06 00:05:28;;;;;;;11.18;9.25;;;2.80;92.30;;;;;;5052597;28;20248;-44
2022/03/06 00:07:59;;;;;;;12.90;9.57;;;3.10;92.80;;;;;;5052799;28;20262;-44
2022/03/06 00:10:25;;;;;;;12.15;8.93;;;2.80;92.30;;;;;;5052147;28;20359;-44
2022/03/06 00:12:52;;;;;;;13.65;9.38;;;3.10;92.50;;;;;;5052317;28;20665;-46
2022/03/06 00:15:21;;;;;;;14.45;9.68;;;2.80;92.70;;;;;;5052561;28;20245;-44
2022/03/06 00:17:48;;;;;;;10.85;9.23;;;3.00;92.30;;;;;;5052198;28;20302;-44
2022/03/06 00:20:14;;;;;;;14.90;9.70;;;3.00;92.70;;;;;;5052279;28;20192;-44
2022/03/06 00:22:41;;;;;;;11.45;7.75;;;3.10;92.40;;;;;;5052631;28;20200;-46
2022/03/06 00:25:10;;;;;;;14.05;9.98;;;2.90;92.30;;;;;;5052071;28;20216;-44
2022/03/06 00:27:37;;;;;;;15.88;9.32;;;3.00;92.20;;;;;;5050813;28;20203;-44
2022/03/06 00:30:06;;;;;;;9.40;8.40;;;3.10;92.40;;;;;;5050357;28;20207;-44
2022/03/06 00:32:32;;;;;;;16.60;9.30;;;2.80;92.20;;;;;;5052197;28;20657;-44
2022/03/06 00:34:59;;;;;;;10.32;9.23;;;2.80;92.20;;;;;;5052328;28;20708;-44
2022/03/06 00:37:25;;;;;;;11.50;8.98;;;2.90;92.20;;;;;;5051112;28;20235;-44
2022/03/06 00:39:52;;;;;;;12.73;9.20;;;2.80;92.00;;;;;;5054428;28;20202;-44
2022/03/06 00:42:20;;;;;;;14.45;10.43;;;3.10;92.20;;;;;;5072368;28;20211;-44
2022/03/06 00:44:47;;;;;;;10.15;9.13;;;;;;;;;;5072248;28;20223;-44
2022/03/06 00:47:13;;;;;;;13.38;9.43;;;3.10;92.20;;;;;;5071474;28;20191;-45
2022/03/06 00:49:40;;;;;;;11.70;8.85;;;2.60;92.40;;;;;;5071554;28;20195;-44
2022/03/06 00:52:07;;;;;;;10.63;8.40;;;3.00;92.50;;;;;;5072209;28;20615;-44
2022/03/06 00:54:34;;;;;;;12.43;10.65;;;2.90;92.20;;;;;;5071841;28;20722;-44
2022/03/06 00:57:01;;;;;;;10.18;9.07;;;3.10;92.20;;;;;;5071797;28;20706;-44
2022/03/06 00:59:33;;;;;;;14.98;10.13;;;3.10;92.20;;;;;;5071358;28;20252;-44
2022/03/06 01:02:00;;;;;;;10.85;9.38;;;3.00;92.20;;;;;;5071663;28;20303;-45
2022/03/06 01:04:27;;;;;;;16.00;10.25;;;2.90;91.90;;;;;;5071625;28;20258;-44
2022/03/06 01:06:53;;;;;;;13.23;10.35;;;3.00;92.10;;;;;;5071735;28;20668;-44
2022/03/06 01:09:20;;;;;;;11.77;9.50;;;2.90;92.10;;;;;;5071586;28;20605;-44
2022/03/06 01:11:47;;;;;;;11.32;9.60;;;3.00;92.50;;;;;;5071779;28;20203;-44
2022/03/06 01:14:13;;;;;;;14.75;11.02;;;2.90;92.20;;;;;;5072001;28;20222;-44
2022/03/06 01:16:41;;;;;;;13.75;11.35;;;2.90;92.10;;;;;;5071442;28;20203;-44
2022/03/06 01:19:08;;;;;;;12.68;10.40;;;2.60;92.00;;;;;;5071297;28;20230;-44
2022/03/06 01:21:34;;;;;;;14.18;10.35;;;2.80;92.10;;;;;;5071552;28;20199;-44
2022/03/06 01:24:01;;;;;;;13.35;10.85;;;2.90;92.10;;;;;;5071759;28;20219;-44
2022/03/06 01:26:27;;;;;;;16.15;11.05;;;2.90;92.00;;;;;;5071521;28;20195;-44
2022/03/06 01:28:54;;;;;;;13.88;11.38;;;2.80;91.90;;;;;;5071272;28;20199;-44
2022/03/06 01:31:21;;;;;;;14.02;12.52;;;2.90;92.00;;;;;;5071566;28;20199;-45
2022/03/06 01:33:49;;;;;;;14.90;11.57;;;2.80;92.00;;;;;;5071240;28;20195;-44
2022/03/06 01:36:15;;;;;;;13.05;11.15;;;2.80;92.00;;;;;;5071635;28;20572;-44
2022/03/06 01:38:42;;;;;;;14.25;11.80;;;3.10;92.00;;;;;;5071104;28;20223;-43
2022/03/06 01:41:08;;;;;;;17.48;12.15;;;2.80;92.10;;;;;;5071836;28;20206;-44
2022/03/06 01:43:35;;;;;;;15.13;11.80;;;;;;;;;;5073163;28;20602;-44
2022/03/06 01:46:02;;;;;;;12.00;10.23;;;2.90;91.90;;;;;;5071432;28;20214;-44
2022/03/06 01:48:28;;;;;;;13.10;11.20;;;2.90;91.90;;;;;;5073091;28;20216;-44
2022/03/06 01:50:56;;;;;;;14.48;12.20;;;3.00;92.20;;;;;;5075544;28;20202;-44
2022/03/06 01:53:23;;;;;;;12.60;10.90;;;2.90;91.80;;;;;;5074320;28;20214;-44
2022/03/06 01:55:50;;;;;;;16.38;11.35;;;2.70;91.80;;;;;;5075356;28;20223;-44
2022/03/06 01:58:16;;;;;;;11.57;10.38;;;3.00;92.20;;;;;;5075710;28;20571;-44
2022/03/06 02:00:46;;;;;;;11.75;9.40;;;2.90;91.70;;;;;;5075566;28;20207;-44
2022/03/06 02:03:14;;;;;;;11.63;10.27;;;2.70;92.00;;;;;;5074399;28;20223;-44
2022/03/06 02:05:41;;;;;;;10.75;9.52;;;2.80;91.80;;;;;;5074808;28;20222;-44
2022/03/06 02:08:09;;;;;;;12.10;9.63;;;2.60;91.90;;;;;;5074873;28;20184;-44
2022/03/06 02:10:36;;;;;;;9.88;8.88;;;2.80;92.10;;;;;;5074577;28;20195;-44
2022/03/06 02:13:03;;;;;;;14.63;9.77;;;2.80;92.10;;;;;;5074902;28;20618;-44
2022/03/06 02:15:30;;;;;;;11.50;9.40;;;2.70;92.10;;;;;;5074573;28;20356;-45
2022/03/06 02:17:57;;;;;;;12.63;9.40;;;2.90;92.30;;;;;;5074571;28;20219;-44
2022/03/06 02:20:26;;;;;;;10.32;9.23;;;2.80;92.30;;;;;;5074284;28;20199;-45
2022/03/06 02:22:56;;;;;;;11.93;9.02;;;2.80;92.30;;;;;;5074915;28;20200;-44
2022/03/06 02:25:24;;;;;;;10.30;9.15;;;3.10;92.90;;;;;;5074421;28;20219;-43
2022/03/06 02:27:53;;;;;;;11.20;8.98;;;2.70;92.40;;;;;;5074710;28;20699;-44
2022/03/06 02:30:22;;;;;;;14.68;9.75;;;2.60;92.30;;;;;;5074285;28;20207;-46
2022/03/06 02:32:52;;;;;;;11.40;9.10;;;2.20;92.40;;;;;;5074652;28;20211;-44
2022/03/06 02:35:19;;;;;;;10.18;7.97;;;2.60;92.40;;;;;;5074687;28;20704;-44
2022/03/06 02:37:47;;;;;;;10.13;8.30;;;2.70;92.50;;;;;;5074281;28;20245;-45
2022/03/06 02:40:16;;;;;;;11.90;8.90;;;2.50;92.30;;;;;;5073883;28;20203;-44
2022/03/06 02:42:44;;;;;;;10.45;8.43;;;2.80;92.50;;;;;;5074099;28;20199;-45
2022/03/06 02:45:13;;;;;;;11.77;8.05;;;2.40;92.30;;;;;;5074107;28;20216;-45
2022/03/06 02:47:40;;;;;;;9.57;7.90;;;2.70;92.90;;;;;;5074556;28;20202;-45
2022/03/06 02:50:11;;;;;;;12.95;9.32;;;2.60;92.50;;;;;;5074663;28;20200;-45
2022/03/06 02:52:38;;;;;;;10.23;8.93;;;2.80;92.50;;;;;;5074736;28;20687;-45
2022/03/06 02:55:06;;;;;;;9.52;8.13;;;2.40;92.20;;;;;;5074599;28;20222;-45
2022/03/06 02:57:35;;;;;;;10.73;8.40;;;2.80;92.40;;;;;;5074163;28;20199;-46
2022/03/06 03:00:02;;;;;;;10.13;7.10;;;2.80;92.30;;;;;;5072934;28;20257;-44
2022/03/06 03:02:28;;;;;;;10.90;8.10;;;2.60;92.10;;;;;;5073780;28;20191;-44
2022/03/06 03:04:55;;;;;;;10.13;7.22;;;2.60;92.40;;;;;;5074004;28;20238;-44
2022/03/06 03:07:22;;;;;;;11.85;7.75;;;2.80;92.00;;;;;;5074216;28;20195;-44
2022/03/06 03:09:48;;;;;;;14.98;8.00;;;2.80;91.80;;;;;;5073743;28;20202;-44
2022/03/06 03:12:15;;;;;;;9.93;6.80;;;2.60;91.80;;;;;;5074086;28;20195;-44
2022/03/06 03:14:43;;;;;;;13.73;8.00;;;2.60;91.80;;;;;;5073988;28;20813;-44
2022/03/06 03:17:09;;;;;;;15.43;7.35;;;2.50;91.80;;;;;;5074539;28;20199;-44
2022/03/06 03:19:36;;;;;;;13.65;8.00;;;2.50;91.90;;;;;;5074369;28;20228;-44
2022/03/06 03:22:03;;;;;;;11.40;8.00;;;2.50;92.10;;;;;;5074521;28;20679;-44
2022/03/06 03:24:30;;;;;;;12.95;9.02;;;2.50;92.20;;;;;;5074327;28;20222;-44
2022/03/06 03:26:56;;;;;;;10.38;8.25;;;2.60;92.30;;;;;;5076304;28;20656;-44
2022/03/06 03:29:23;;;;;;;12.20;8.40;;;2.50;92.20;;;;;;5074327;28;20677;-44
2022/03/06 03:31:51;;;;;;;12.98;6.85;;;2.60;92.40;;;;;;5073744;28;20191;-44
2022/03/06 03:34:17;;;;;;;12.13;7.43;;;2.80;92.50;;;;;;5073420;28;20549;-44
2022/03/06 03:36:44;;;;;;;10.73;8.23;;;2.40;92.40;;;;;;5073648;28;20195;-44
2022/03/06 03:39:11;;;;;;;10.30;7.28;;;2.70;92.60;;;;;;5072924;28;20226;-44
2022/03/06 03:41:38;;;;;;;10.98;7.72;;;2.60;92.50;;;;;;5073099;28;20278;-44
2022/03/06 03:44:05;;;;;;;11.88;7.22;;;2.50;92.50;;;;;;5073295;28;20303;-44
2022/03/06 03:46:32;;;;;;;10.68;7.65;;;2.60;92.60;;;;;;5073123;28;20195;-44
2022/03/06 03:49:00;;;;;;;10.25;7.00;;;2.70;92.60;;;;;;5072424;28;20664;-44
2022/03/06 03:51:26;;;;;;;10.80;6.90;;;2.50;92.80;;;;;;5072969;28;20674;-44
2022/03/06 03:53:53;;;;;;;10.32;6.82;;;;;;;;;;5072910;28;20640;-44
2022/03/06 03:56:22;;;;;;;10.05;6.45;;;;;;;;;;5073043;28;20211;-44
2022/03/06 03:58:49;;;;;;;11.13;7.47;;;2.60;92.40;;;;;;5072618;28;20246;-44
2022/03/06 04:01:17;;;;;;;12.43;7.50;;;2.40;92.40;;;;;;5072733;28;20580;-44
2022/03/06 04:03:43;;;;;;;11.13;7.13;;;2.40;92.40;;;;;;5072812;28;20199;-44
2022/03/06 04:06:12;;;;;;;10.70;6.28;;;2.60;92.40;;;;;;5073332;28;20238;-44
2022/03/06 04:08:39;;;;;;;11.48;7.57;;;2.30;92.20;;;;;;5072958;28;20560;-44
2022/03/06 04:11:06;;;;;;;10.20;6.40;;;2.60;92.50;;;;;;5072676;28;20253;-44
2022/03/06 04:13:33;;;;;;;7.93;6.40;;;;;;;;;;5072710;28;20206;-44
2022/03/06 04:16:00;;;;;;;9.45;6.35;;;2.70;90.80;;;;;;5072350;28;20219;-44
2022/03/06 04:18:27;;;;;;;8.27;6.00;;;2.50;90.60;;;;;;5072042;28;20241;-43
2022/03/06 04:20:53;;;;;;;9.35;6.38;;;2.30;90.40;;;;;;5072659;28;20199;-44
2022/03/06 04:23:21;;;;;;;9.52;7.57;;;2.50;90.90;;;;;;5072607;28;20214;-44
2022/03/06 04:25:48;;;;;;;9.07;6.75;;;2.40;90.10;;;;;;5072578;28;20219;-44
2022/03/06 04:28:15;;;;;;;9.60;6.80;;;2.40;90.20;;;;;;5072571;28;20199;-44
2022/03/06 04:30:41;;;;;;;8.65;6.30;;;2.70;90.40;;;;;;5072128;28;20191;-44
2022/03/06 04:33:08;;;;;;;8.40;6.28;;;2.60;90.70;;;;;;5072769;28;20206;-45
2022/03/06 04:35:35;;;;;;;9.88;6.88;;;2.70;90.40;;;;;;5073728;28;20223;-44
2022/03/06 04:38:01;;;;;;;11.38;7.38;;;2.60;90.20;;;;;;5072890;28;20226;-44
2022/03/06 04:40:30;;;;;;;8.90;6.88;;;2.50;89.70;;;;;;5072638;28;20195;-44
2022/03/06 04:42:57;;;;;;;9.88;7.60;;;2.70;89.50;;;;;;5072111;28;20692;-45
2022/03/06 04:45:25;;;;;;;15.73;7.88;;;2.50;89.10;;;;;;5072263;28;20214;-43
2022/03/06 04:47:52;;;;;;;8.32;7.05;;;2.60;89.80;;;;;;5072443;28;20282;-44
2022/03/06 04:50:18;;;;;;;10.10;7.38;;;2.40;87.20;;;;;;5071611;28;20231;-44
2022/03/06 04:52:45;;;;;;;7.93;6.82;;;2.80;88.70;;;;;;5072010;28;20669;-46
2022/03/06 04:55:12;;;;;;;14.38;7.53;;;2.50;87.50;;;;;;5071971;28;20215;-46
2022/03/06 04:57:41;;;;;;;7.28;6.47;;;2.70;88.40;;;;;;5073078;28;20198;-44
2022/03/06 05:00:09;;;;;;;10.93;7.68;;;2.50;86.30;;;;;;5072238;28;20265;-44
2022/03/06 05:02:35;;;;;;;9.57;6.88;;;2.40;87.10;;;;;;5071977;28;20686;-45
2022/03/06 05:05:02;;;;;;;12.25;7.20;;;2.30;87.20;;;;;;5072408;28;20231;-42
2022/03/06 05:07:28;;;;;;;10.45;7.28;;;2.40;86.90;;;;;;5071725;28;20541;-44
2022/03/06 05:09:55;;;;;;;10.27;7.65;;;2.60;86.80;;;;;;5071987;28;20191;-42
2022/03/06 05:12:21;;;;;;;8.40;7.05;;;2.50;86.80;;;;;;5071698;28;20203;-42
2022/03/06 05:14:49;;;;;;;9.43;8.10;;;2.60;86.60;;;;;;5071583;28;20394;-43
2022/03/06 05:17:16;;;;;;;8.90;7.70;;;2.70;86.60;;;;;;5071794;28;20598;-42
2022/03/06 05:19:43;;;;;;;9.02;6.40;;;2.40;86.80;;;;;;5071057;28;20218;-44
2022/03/06 05:22:10;;;;;;;8.05;7.15;;;2.60;87.10;;;;;;5071267;28;20213;-42
2022/03/06 05:24:36;;;;;;;12.07;7.57;;;2.40;87.60;;;;;;5071331;28;20222;-42
2022/03/06 05:27:03;;;;;;;9.18;7.22;;;2.40;86.70;;;;;;5071898;28;20199;-43
2022/03/06 05:29:30;;;;;;;8.88;7.00;;;2.60;87.40;;;;;;5071078;28;20188;-43
2022/03/06 05:31:58;;;;;;;9.77;7.35;;;2.50;87.10;;;;;;5071875;28;20790;-42
2022/03/06 05:34:24;;;;;;;9.43;7.32;;;2.70;87.60;;;;;;5071226;28;20629;-42
2022/03/06 05:36:51;;;;;;;13.75;7.22;;;2.50;86.60;;;;;;5071425;28;20278;-45
2022/03/06 05:39:18;;;;;;;10.07;7.47;;;2.50;87.30;;;;;;5071069;28;20306;-43
2022/03/06 05:41:44;;;;;;;9.15;8.02;;;2.60;85.90;;;;;;5071192;28;20203;-43
2022/03/06 05:44:11;;;;;;;10.98;7.30;;;2.80;86.30;;;;;;5071474;28;20226;-41
2022/03/06 05:46:37;;;;;;;10.30;8.07;;;2.80;84.90;;;;;;5071430;28;20210;-44
2022/03/06 05:49:12;;;;;;;9.30;7.63;;;2.50;84.90;;;;;;5070992;28;20687;-42
2022/03/06 05:51:39;;;;;;;11.57;8.52;;;2.40;84.70;;;;;;5071407;28;20199;-42
2022/03/06 05:54:06;;;;;;;10.35;7.18;;;2.60;85.10;;;;;;5071350;28;20215;-42
2022/03/06 05:56:32;;;;;;;9.18;7.40;;;2.60;85.30;;;;;;5071301;28;20187;-42
2022/03/06 05:58:59;;;;;;;10.85;7.45;;;2.70;85.70;;;;;;5071047;28;20258;-42
2022/03/06 06:01:28;;;;;;;9.98;7.85;;;2.60;85.30;;;;;;5071313;28;20210;-44
2022/03/06 06:03:54;;;;;;;12.00;9.40;;;2.70;84.90;;;;;;5070887;28;20282;-43
2022/03/06 06:06:22;;;;;;;10.18;7.88;;;2.50;84.70;;;;;;5071314;28;20211;-43
2022/03/06 06:08:49;;;;;;;14.75;9.00;;;2.70;85.00;;;;;;5070825;28;20199;-43
2022/03/06 06:11:15;;;;;;;10.55;7.90;;;2.70;85.00;;;;;;5070994;28;20198;-42
2022/03/06 06:13:42;;;;;;;9.80;7.70;;;2.90;85.60;;;;;;5071066;28;20206;-44
2022/03/06 06:16:08;;;;;;;15.90;9.43;;;2.50;85.80;;;;;;5070901;28;20695;-42
2022/03/06 06:18:35;;;;;;;10.60;9.25;;;2.90;85.70;;;;;;5070521;28;20608;-43
2022/03/06 06:21:02;;;;;;;12.57;7.97;;;2.60;85.50;;;;;;5070957;28;20203;-42
2022/03/06 06:23:30;;;;;;;10.05;8.10;;;2.70;85.60;;;;;;5070876;28;20576;-43
2022/03/06 06:25:56;;;;;;;13.32;9.55;;;2.80;85.60;;;;;;5070935;28;20227;-44
2022/03/06 06:28:23;;;;;;;11.40;9.50;;;2.70;85.10;;;;;;5070875;28;20203;-43
2022/03/06 06:30:50;;;;;;;10.80;9.57;;;2.70;84.70;;;;;;5070809;28;20195;-42
2022/03/06 06:33:16;;;;;;;13.20;8.65;;;2.60;85.10;;;;;;5070884;28;20600;-44
2022/03/06 06:35:43;;;;;;;9.95;7.75;;;2.80;85.20;;;;;;5072721;28;20723;-42
2022/03/06 06:38:10;;;;;;;9.82;8.77;;;2.80;85.10;;;;;;5074169;28;20198;-42
2022/03/06 06:40:38;;;;;;;8.32;7.45;;;2.80;85.10;;;;;;5073792;28;20230;-42
2022/03/06 06:43:04;;;;;;;9.35;8.40;;;3.20;84.70;;;;;;5074161;28;20679;-42
2022/03/06 06:45:31;;;;;;;9.15;8.00;;;3.00;84.30;;;;;;5074232;28;20760;-43
2022/03/06 06:47:58;;;;;;;8.07;7.35;;;3.00;84.80;;;;;;5074258;28;20203;-43
2022/03/06 06:50:24;;;;;;;9.23;8.32;;;2.70;83.60;;;;;;5073816;28;20192;-43
2022/03/06 06:52:51;;;;;;;9.90;8.52;;;2.90;83.80;;;;;;5074027;28;20206;-44
2022/03/06 06:55:17;;;;;;;10.88;9.27;;;2.80;84.00;;;;;;5074041;28;20227;-43
2022/03/06 06:57:45;;;;;;;12.07;8.75;;;2.90;84.00;;;;;;5074090;28;20199;-43
2022/03/06 07:00:13;;;;;;;12.82;9.25;;;3.20;84.40;;;;;;5073488;28;20230;-42
2022/03/06 07:02:40;;;;;;;9.20;8.30;;;3.20;84.30;;;;;;5073981;28;20231;-43
2022/03/06 07:05:08;;;;;;;9.98;8.98;;;3.00;84.10;;;;;;5073533;28;20244;-42
2022/03/06 07:07:34;;;;;;;10.13;8.10;;;3.10;83.60;;;;;;5073835;28;20214;-42
2022/03/06 07:10:01;;;;;;;9.60;8.60;;;3.10;83.60;;;;;;5073910;28;20191;-43
2022/03/06 07:12:28;;;;;;;9.52;8.52;;;3.20;83.50;;;;;;5073868;28;20196;-45
2022/03/06 07:14:56;;;;;;;11.07;9.48;;;2.80;83.00;;;;;;5072474;28;20215;-43
2022/03/06 07:17:22;;;;;;;10.85;9.85;;;3.00;83.50;;;;;;5073623;28;20204;-41
2022/03/06 07:19:49;;;;;;;11.45;9.30;;;3.10;83.40;;;;;;5073043;28;20215;-41
2022/03/06 07:22:16;;;;;;;11.15;10.10;;;3.30;83.90;;;;;;5073520;28;20196;-44
2022/03/06 07:24:42;;;;;;;15.35;10.00;;;3.30;84.60;;;;;;5073439;28;20268;-41
2022/03/06 07:27:09;;;;;;;13.85;10.45;;;2.90;84.50;;;;;;5073467;28;20693;-43
2022/03/06 07:29:35;;;;;;;11.30;9.68;;;3.10;84.50;;;;;;5073090;28;20574;-42
2022/03/06 07:32:04;;;;;;;11.07;9.55;;;3.10;84.60;;;;;;5073671;28;20265;-42
2022/03/06 07:34:30;;;;;;;11.65;9.88;;;3.00;84.80;;;;;;5073218;28;20566;-42
2022/03/06 07:36:57;;;;;;;10.77;9.65;;;2.90;84.60;;;;;;5073843;28;20563;-42
2022/03/06 07:39:23;;;;;;;10.70;9.70;;;3.20;85.10;;;;;;5073292;28;20215;-42
2022/03/06 07:41:50;;;;;;;11.50;10.07;;;3.20;85.10;;;;;;5072986;28;20203;-45
2022/03/06 07:44:16;;;;;;;11.40;10.32;;;3.30;85.40;;;;;;5073287;28;20216;-43
2022/03/06 07:46:43;;;;;;;11.23;10.23;;;3.30;85.30;;;;;;5072480;28;20199;-43
2022/03/06 07:49:11;;;;;;;10.27;9.27;;;2.90;84.90;;;;;;5072510;28;20199;-43
2022/03/06 07:51:37;;;;;;;11.50;10.27;;;3.30;85.80;;;;;;5073030;28;20199;-43
2022/03/06 07:54:04;;;;;;;11.73;10.52;;;3.40;86.00;;;;;;5072687;28;20211;-43
2022/03/06 07:56:32;;;;;;;12.48;10.95;;;3.10;85.90;;;;;;5072905;28;20199;-44
2022/03/06 07:58:58;;;;;;;11.73;9.82;;;3.30;86.00;;;;;;5072557;28;20624;-43
2022/03/06 08:01:25;;;;;;;10.82;9.82;;;3.10;85.60;;;;;;5072973;28;20191;-45
2022/03/06 08:03:51;;;;;;;10.55;9.55;;;3.00;85.60;;;;;;5072506;28;20211;-43
2022/03/06 08:06:19;;;;;;;13.25;10.18;;;3.20;86.30;;;;;;5072789;28;20680;-42
2022/03/06 08:08:46;;;;;;;11.95;10.82;;;3.20;86.40;;;;;;5072501;28;20195;-42
2022/03/06 08:11:12;;;;;;;12.68;11.27;;;3.30;87.20;;;;;;5072667;28;20205;-42
2022/03/06 08:13:39;;;;;;;12.48;10.25;;;3.40;86.70;;;;;;5072856;28;20204;-43
2022/03/06 08:16:06;;;;;;;10.60;9.60;;;3.30;87.00;;;;;;5073766;28;20199;-43
2022/03/06 08:18:33;;;;;;;12.60;11.30;;;3.50;87.60;;;;;;5072285;28;20203;-48
2022/03/06 08:20:59;;;;;;;10.85;9.55;;;3.40;87.50;;;;;;5072844;28;20215;-42
2022/03/06 08:23:27;;;;;;;11.98;10.48;;;3.20;87.40;;;;;;5072712;28;20598;-42
2022/03/06 08:25:54;;;;;;;11.70;10.52;;;3.40;88.10;;;;;;5072425;28;20290;-43
2022/03/06 08:28:21;;;;;;;10.35;9.23;;;3.20;87.90;;;;;;5072421;28;20282;-43
2022/03/06 08:30:47;;;;;;;9.45;8.45;;;3.20;88.20;;;;;;5072619;28;20191;-43
2022/03/06 08:33:14;;;;;;;11.45;9.05;;;3.30;88.40;;;;;;5072223;28;20203;-42
2022/03/06 08:35:41;;;;;;;18.23;8.93;;;;;;;;;;5072270;28;20241;-42
2022/03/06 08:38:08;;;;;;;9.68;8.55;;;3.10;88.60;;;;;;5072543;28;20202;-43
2022/03/06 08:40:36;;;;;;;10.23;8.55;;;3.40;89.40;;;;;;5071843;28;20243;-43
2022/03/06 08:43:03;;;;;;;11.85;7.97;;;3.20;89.30;;;;;;5072148;28;20203;-42
2022/03/06 08:45:29;;;;;;;9.13;8.23;;;3.20;89.30;;;;;;5072423;28;20211;-42
2022/03/06 08:47:56;;;;;;;8.77;7.82;;;2.90;89.60;;;;;;5072574;28;20213;-41
2022/03/06 08:50:23;;;;;;;11.20;8.02;;;3.10;89.80;;;;;;5071946;28;20209;-44
2022/03/06 08:52:50;;;;;;;9.57;8.57;;;3.20;90.10;;;;;;5072036;28;20206;-43
2022/03/06 08:55:16;;;;;;;9.45;8.52;;;3.10;90.10;;;;;;5071749;28;20219;-42
2022/03/06 08:57:44;;;;;;;10.13;7.90;;;3.00;90.10;;;;;;5071360;28;20263;-43
2022/03/06 09:00:12;;;;;;;8.45;7.07;;;3.30;90.40;;;;;;5071835;28;20225;-41
2022/03/06 09:02:39;;;;;;;7.93;7.10;;;3.20;90.30;;;;;;5072088;28;20205;-44
2022/03/06 09:05:06;;;;;;;9.18;7.63;;;3.20;90.40;;;;;;5072197;28;20230;-42
2022/03/06 09:07:33;;;;;;;10.18;8.40;;;3.30;90.40;;;;;;5070727;28;20210;-42
2022/03/06 09:09:59;;;;;;;8.05;7.25;;;3.30;90.50;;;;;;5071691;28;20579;-42
2022/03/06 09:12:27;;;;;;;7.93;7.10;;;3.30;90.40;;;;;;5071563;28;20196;-43
2022/03/06 09:14:55;;;;;;;7.90;7.05;;;3.40;90.40;;;;;;5071683;28;20268;-44
2022/03/06 09:17:22;;;;;;;7.10;6.40;;;3.40;90.30;;;;;;5071714;28;20214;-42
2022/03/06 09:19:48;;;;;;;7.65;6.95;;;3.40;90.70;;;;;;5071557;28;20242;-45
2022/03/06 09:22:15;;;;;;;7.18;6.38;;;3.30;90.00;;;;;;5072719;28;20202;-42
2022/03/06 09:24:42;;;;;;;9.73;7.30;;;3.40;90.00;;;;;;5072599;28;20215;-43
2022/03/06 09:27:08;;;;;;;9.10;7.45;;;3.60;89.70;;;;;;5072835;28;20207;-42
2022/03/06 09:29:35;;;;;;;9.85;6.90;;;3.50;89.80;;;;;;5072306;28;20672;-43
2022/03/06 09:32:03;;;;;;;8.18;7.10;;;3.40;89.20;;;;;;5072377;28;20199;-43
2022/03/06 09:34:30;;;;;;;7.55;6.82;;;3.40;88.70;;;;;;5072086;28;20211;-44
2022/03/06 09:36:57;;;;;;;8.70;5.88;;;3.60;88.10;;;;;;5072078;28;20207;-41
2022/03/06 09:39:24;;;;;;;7.72;7.05;;;;;;;;;;5071658;28;20290;-41
2022/03/06 09:41:54;;;;;;;6.63;6.03;;;3.60;87.90;;;;;;5059463;28;20214;-46
2022/03/06 09:44:25;;;;;;;8.27;7.28;;;3.40;88.10;;;;;;5071718;28;20569;-44
2022/03/06 09:46:54;;;;;;;10.35;7.07;;;3.70;88.30;;;;;;5071270;28;20195;-44
2022/03/06 09:49:23;;;;;;;6.28;5.68;;;3.70;87.90;;;;;;5071202;28;20199;-43
2022/03/06 09:51:50;;;;;;;8.38;6.53;;;3.50;86.50;;;;;;5071437;28;20230;-43
2022/03/06 09:54:18;;;;;;;7.90;6.18;;;3.90;86.50;;;;;;5071297;28;20214;-44
2022/03/06 09:56:45;;;;;;;9.30;6.35;;;3.70;86.60;;;;;;5072385;28;20203;-41
2022/03/06 09:59:12;;;;;;;8.15;6.05;;;3.80;86.80;;;;;;5072780;28;20191;-43
2022/03/06 10:01:39;;;;;;;7.32;6.25;;;;;;;;;;5071432;28;20227;-43
2022/03/06 10:04:26;;;;;;;6.53;5.93;;;3.80;85.90;;;;;;5071215;28;20235;-42
2022/03/06 10:07:01;;;;;;;7.32;6.05;;;3.70;86.00;;;;;;5072729;28;20286;-43
2022/03/06 10:09:28;;;;;;;7.78;6.97;;;3.90;86.60;;;;;;5073067;28;20567;-45
2022/03/06 10:11:55;;;;;;;6.53;5.93;;;3.70;86.00;;;;;;5073867;28;20187;-43
2022/03/06 10:14:38;;;;;;;7.00;6.35;;;3.90;85.00;;;;;;5075252;28;20461;-43
2022/03/06 10:17:10;;;;;;;7.80;6.38;;;4.00;84.80;;;;;;5074878;28;20207;-44
2022/03/06 10:19:56;;;;;;;6.90;6.20;;;4.00;84.20;;;;;;5074564;28;20203;-43
2022/03/06 10:22:25;;;;;;;7.10;6.40;;;3.70;84.50;;;;;;5074050;28;20290;-42
2022/03/06 10:24:54;;;;;;;5.95;5.55;;;3.80;82.10;;;;;;5073703;28;20269;-45
2022/03/06 10:27:46;;;;;;;6.95;6.22;;;4.20;83.50;;;;;;5075224;28;20199;-43
2022/03/06 10:30:30;;;;;;;7.38;5.93;;;4.10;82.00;;;;;;5074389;28;20247;-44
2022/03/06 10:32:58;;;;;;;7.03;6.32;;;4.00;81.10;;;;;;5074605;28;20675;-43
2022/03/06 10:35:34;;;;;;;6.60;6.10;;;4.00;81.10;;;;;;5074618;28;20238;-42
2022/03/06 10:38:02;;;;;;;9.18;6.38;;;4.20;80.60;;;;;;5074469;28;20550;-42
2022/03/06 10:40:33;;;;;;;9.80;6.22;;;3.90;80.60;;;;;;5074276;28;20238;-41
2022/03/06 10:43:00;;;;;;;6.13;5.53;;;4.10;80.00;;;;;;5074765;28;20702;-41
2022/03/06 10:45:27;;;;;;;7.72;6.82;;;3.60;80.00;;;;;;5074737;28;20780;-44
2022/03/06 10:47:54;;;;;;;6.65;6.05;;;;;;;;;;5074496;28;20238;-42
2022/03/06 10:50:21;;;;;;;6.75;6.07;;;4.10;79.00;;;;;;5073952;28;20200;-45
2022/03/06 10:52:53;;;;;;;8.98;6.20;;;4.20;77.20;;;;;;5074191;28;20199;-42
2022/03/06 10:55:33;;;;;;;7.53;6.25;;;4.20;77.10;;;;;;5074383;28;20723;-42
2022/03/06 10:57:59;;;;;;;6.65;6.00;;;4.40;76.70;;;;;;5074522;28;20206;-42
2022/03/06 11:00:27;;;;;;;6.70;6.00;;;4.10;76.50;;;;;;5073533;28;20221;-42
2022/03/06 11:02:54;;;;;;;7.18;6.47;;;;;;;;;;5074093;28;20202;-42
2022/03/06 11:05:21;;;;;;;6.75;6.15;;;4.30;76.70;;;;;;5087425;22;20489;-50
2022/03/06 11:07:51;;;;;;;7.35;6.65;;;4.50;76.80;;;;;;5073439;28;20912;-52
2022/03/06 11:10:19;;;;;;;10.02;7.43;;;;;;;;;;5072993;28;20194;-52
2022/03/06 11:12:46;;;;;;;8.65;7.13;;;;;;;;;;5073439;28;20655;-52
2022/03/06 11:15:14;;;;;;;7.78;6.95;;;4.80;75.80;;;;;;5073277;28;20219;-49
2022/03/06 11:17:41;;;;;;;6.97;6.28;;;;;;;;;;5073562;28;20264;-51
2022/03/06 11:20:09;;;;;;;7.05;6.35;;;4.60;73.60;;;;;;5072250;28;20199;-52
2022/03/06 11:22:40;;;;;;;6.50;5.90;;;4.60;73.70;;;;;;5073234;28;20203;-50
2022/03/06 11:25:11;;;;;;;6.30;5.68;;;4.80;73.00;;;;;;5073291;28;20695;-51
2022/03/06 11:27:50;;;;;;;7.35;6.65;;;4.80;72.40;;;;;;5073047;28;20195;-50
2022/03/06 11:30:20;;;;;;;8.15;5.97;;;5.00;72.50;;;;;;5072623;28;20190;-50
2022/03/06 11:32:58;;;;;;;6.90;6.20;;;5.20;72.70;;;;;;5073004;28;20199;-51
2022/03/06 11:35:31;;;;;;;7.90;6.70;;;4.80;71.70;;;;;;5073133;28;20223;-52
2022/03/06 11:37:59;;;;;;;10.90;8.77;;;4.90;71.00;;;;;;5073058;28;20683;-50
2022/03/06 11:40:44;;;;;;;6.60;6.00;;;;;;;;;;5072092;28;20225;-52
2022/03/06 11:43:11;;;;;;;6.35;5.75;;;5.10;70.40;;;;;;5072839;28;20214;-52
2022/03/06 11:45:49;;;;;;;6.88;6.15;;;5.30;71.20;;;;;;5072986;28;20249;-52
2022/03/06 11:48:47;;;;;;;6.53;6.03;;;5.20;70.00;;;;;;5072344;28;20586;-50
2022/03/06 11:51:20;;;;;;;7.55;6.90;;;;;;;;;;5072567;28;20195;-51
2022/03/06 11:53:49;;;;;;;8.15;6.45;;;5.30;68.50;;;;;;5071128;28;20210;-51
2022/03/06 11:56:35;;;;;;;6.65;6.05;;;;;;;;;;5072697;28;20222;-51
2022/03/06 11:59:03;;;;;;;7.03;6.43;;;;;;;;;;5071990;28;20303;-52
2022/03/06 12:01:36;;;;;;;4.60;4.20;;;5.20;66.30;;;;;;5072121;28;20427;-50
2022/03/06 12:04:08;;;;;;;8.25;4.72;;;5.30;67.20;;;;;;5072567;28;20202;-49
2022/03/06 12:06:40;;;;;;;5.35;4.95;;;5.20;66.80;;;;;;5072220;28;20227;-50
2022/03/06 12:09:12;;;;;;;6.20;5.68;;;5.50;67.10;;;;;;5071628;28;20200;-49
2022/03/06 12:11:40;;;;;;;8.10;5.30;;;5.70;66.80;;;;;;5072334;28;20208;-50
2022/03/06 12:14:12;;;;;;;4.57;4.18;;;;;;;;;;5072311;28;20456;-50
2022/03/06 12:17:20;;;;;;;5.10;4.60;;;5.30;67.30;;;;;;5072563;28;20261;-50
2022/03/06 12:20:07;;;;;;;3.80;2.93;;;;;;;;;;5072171;28;20441;-51
2022/03/06 12:22:44;;;;;;;4.07;2.83;;;5.30;68.80;;;;;;5072001;28;20509;-50
2022/03/06 12:25:24;;;;;;;4.13;2.63;;;5.00;69.00;;;;;;5072068;28;20226;-50
2022/03/06 12:28:10;;;;;;;3.75;2.85;;;;;;;;;;5071928;28;20206;-51
2022/03/06 12:30:38;;;;;;;3.38;3.00;;;5.20;69.50;;;;;;5071657;28;20664;-50
2022/03/06 12:33:33;;;;;;;4.15;2.88;;;5.10;69.30;;;;;;5071527;28;20195;-50
2022/03/06 12:36:20;;;;;;;2.70;2.50;;;5.20;69.50;;;;;;5071734;28;20276;-52
2022/03/06 12:38:52;;;;;;;2.97;2.67;;;;;;;;;;5071840;28;20316;-50
2022/03/06 12:41:18;;;;;;;3.33;2.50;;;5.20;70.10;;;;;;5071284;28;20217;-50
2022/03/06 12:43:48;;;;;;;4.38;3.03;;;5.10;70.10;;;;;;5071760;28;20188;-50
2022/03/06 12:46:17;;;;;;;3.20;2.90;;;5.20;69.60;;;;;;5071178;28;20658;-50
2022/03/06 12:48:47;;;;;;;4.32;3.05;;;5.40;70.20;;;;;;5071420;28;20253;-50
2022/03/06 12:51:25;;;;;;;6.97;2.90;;;5.20;69.70;;;;;;5071490;28;20207;-52
2022/03/06 12:53:53;;;;;;;4.05;2.97;;;5.30;70.40;;;;;;5071459;28;20263;-51
2022/03/06 12:56:32;;;;;;;6.25;3.20;;;5.30;70.10;;;;;;5071001;28;20846;-50
2022/03/06 12:59:08;;;;;;;3.22;2.83;;;5.20;70.30;;;;;;5071397;28;20249;-49
2022/03/06 13:01:35;;;;;;;4.18;3.00;;;;;;;;;;5071280;28;20691;-51
2022/03/06 13:04:03;;;;;;;4.82;2.47;;;5.10;70.80;;;;;;5071964;28;20199;-50